createdAt,value
2022-12-03T00:00:12.556Z,101660.31
2022-12-03T00:03:00.946Z,101657.06
2022-12-03T00:05:29.039Z,101653.31
2022-12-03T00:07:56.963Z,101649.66
2022-12-03T00:10:24.962Z,101646.72
2022-12-03T00:12:53.028Z,101643.88
2022-12-03T00:15:20.938Z,101644.19
2022-12-03T00:17:48.662Z,101646.03
2022-12-03T00:20:23.189Z,101639.69
2022-12-03T00:22:50.911Z,101642.31
2022-12-03T00:25:18.947Z,101640.47
2022-12-03T00:27:46.876Z,101643.09
2022-12-03T00:30:15.248Z,101636.97
2022-12-03T00:32:43.035Z,101645.72
2022-12-03T00:35:10.937Z,101633.91
2022-12-03T00:37:38.593Z,101635.63
2022-12-03T00:40:07.214Z,101637.69
2022-12-03T00:42:35.141Z,101645.28
2022-12-03T00:45:04.661Z,101630.91
2022-12-03T00:47:32.351Z,101627.22
2022-12-03T00:50:00.264Z,101632.25
2022-12-03T00:52:27.964Z,101629.06
2022-12-03T00:54:56.072Z,101631.06
2022-12-03T00:57:23.820Z,101627.94
2022-12-03T00:59:51.716Z,101626.34
2022-12-03T01:02:19.354Z,101635.44
2022-12-03T01:04:47.899Z,101628.97
2022-12-03T01:07:15.623Z,101626.03
2022-12-03T01:09:43.491Z,101628.00
2022-12-03T01:12:12.053Z,101633.69
2022-12-03T01:14:40.060Z,101619.91
2022-12-03T01:17:07.670Z,101627.16
2022-12-03T01:19:35.907Z,101631.53
2022-12-03T01:22:03.695Z,101633.66
2022-12-03T01:24:32.350Z,101627.09
2022-12-03T01:27:00.929Z,101626.50
2022-12-03T01:29:28.863Z,101619.50
2022-12-03T01:32:15.048Z,101628.53
2022-12-03T01:34:54.906Z,101630.19
2022-12-03T01:37:25.453Z,101621.66
2022-12-03T01:39:53.757Z,101620.03
2022-12-03T01:42:39.572Z,101611.50
2022-12-03T01:45:19.351Z,101608.19
2022-12-03T01:47:46.960Z,101608.97
2022-12-03T01:50:31.712Z,101616.53
2022-12-03T01:53:02.999Z,101611.28
2022-12-03T01:55:31.399Z,101611.59
2022-12-03T01:58:01.921Z,101609.78
2022-12-03T02:00:30.301Z,101613.84
2022-12-03T02:03:03.830Z,101614.34
2022-12-03T02:05:33.314Z,101621.75
2022-12-03T02:08:01.605Z,101616.72
2022-12-03T02:10:37.867Z,101613.34
2022-12-03T02:13:10.640Z,101616.72
2022-12-03T02:15:40.177Z,101610.50
2022-12-03T02:18:09.347Z,101614.41
2022-12-03T02:21:07.994Z,101609.53
2022-12-03T02:23:47.454Z,101618.81
2022-12-03T02:26:15.501Z,101610.31
2022-12-03T02:28:43.314Z,101614.97
2022-12-03T02:31:11.447Z,101619.59
2022-12-03T02:33:39.302Z,101610.97
2022-12-03T02:36:07.425Z,101616.63
2022-12-03T02:38:36.365Z,101611.50
2022-12-03T02:41:08.510Z,101612.31
2022-12-03T02:43:36.759Z,101613.03
2022-12-03T02:46:07.855Z,101612.53
2022-12-03T02:48:39.892Z,101614.97
2022-12-03T02:51:10.293Z,101619.97
2022-12-03T02:53:48.752Z,101620.47
2022-12-03T02:56:21.091Z,101619.34
2022-12-03T02:58:52.674Z,101608.34
2022-12-03T03:01:20.708Z,101617.97
2022-12-03T03:03:50.881Z,101616.16
2022-12-03T03:06:20.818Z,101598.34
2022-12-03T03:08:49.287Z,101615.69
2022-12-03T03:11:17.233Z,101621.47
2022-12-03T03:13:44.884Z,101613.03
2022-12-03T03:16:13.239Z,101620.69
2022-12-03T03:18:41.241Z,101611.78
2022-12-03T03:21:09.610Z,101614.22
2022-12-03T03:23:37.158Z,101612.06
2022-12-03T03:26:11.866Z,101603.06
2022-12-03T03:28:43.658Z,101608.88
2022-12-03T03:31:15.283Z,101607.03
2022-12-03T03:33:47.122Z,101601.13
2022-12-03T03:36:16.713Z,101604.09
2022-12-03T03:38:44.440Z,101605.88
2022-12-03T03:41:13.197Z,101609.38
2022-12-03T03:43:42.647Z,101606.13
2022-12-03T03:46:12.108Z,101610.81
2022-12-03T03:48:41.850Z,101606.84
2022-12-03T03:51:11.212Z,101601.88
2022-12-03T03:53:41.195Z,101603.72
2022-12-03T03:56:09.706Z,101596.22
2022-12-03T03:58:38.098Z,101606.94
2022-12-03T04:01:06.465Z,101605.16
2022-12-03T04:03:35.356Z,101595.78
2022-12-03T04:06:03.564Z,101593.44
2022-12-03T04:08:31.803Z,101587.16
2022-12-03T04:11:18.105Z,101590.69
2022-12-03T04:13:45.689Z,101586.97
2022-12-03T04:16:13.667Z,101587.97
2022-12-03T04:18:44.529Z,101591.63
2022-12-03T04:21:39.295Z,101592.19
2022-12-03T04:24:08.623Z,101595.59
2022-12-03T04:26:55.789Z,101593.41
2022-12-03T04:29:23.754Z,101590.53
2022-12-03T04:32:10.274Z,101598.25
2022-12-03T04:34:56.791Z,101595.41
2022-12-03T04:37:25.099Z,101591.91
2022-12-03T04:39:52.715Z,101594.81
2022-12-03T04:42:20.621Z,101588.44
2022-12-03T04:44:48.448Z,101588.06
2022-12-03T04:47:21.563Z,101585.94
2022-12-03T04:49:51.719Z,101580.75
2022-12-03T04:52:20.799Z,101576.41
2022-12-03T04:54:48.805Z,101575.13
2022-12-03T04:57:16.735Z,101583.84
2022-12-03T04:59:44.456Z,101579.72
2022-12-03T05:02:12.389Z,101580.56
2022-12-03T05:04:40.412Z,101583.47
2022-12-03T05:07:08.285Z,101581.94
2022-12-03T05:09:36.034Z,101586.56
2022-12-03T05:12:04.066Z,101576.88
2022-12-03T05:14:31.663Z,101577.59
2022-12-03T05:16:59.692Z,101585.94
2022-12-03T05:19:47.302Z,101573.41
2022-12-03T05:22:15.350Z,101578.75
2022-12-03T05:24:43.038Z,101577.31
2022-12-03T05:27:11.002Z,101575.75
2022-12-03T05:29:38.652Z,101568.25
2022-12-03T05:32:06.601Z,101574.91
2022-12-03T05:34:34.296Z,101575.94
2022-12-03T05:37:02.169Z,101565.31
2022-12-03T05:39:29.926Z,101570.78
2022-12-03T05:42:27.234Z,101570.44
2022-12-03T05:44:55.044Z,101566.28
2022-12-03T05:47:23.099Z,101568.94
2022-12-03T05:49:50.659Z,101567.78
2022-12-03T05:52:18.552Z,101568.41
2022-12-03T05:54:46.152Z,101563.72
2022-12-03T05:57:14.014Z,101565.94
2022-12-03T05:59:41.586Z,101569.97
2022-12-03T06:02:09.473Z,101567.97
2022-12-03T06:04:37.273Z,101564.00
2022-12-03T06:07:07.464Z,101569.72
2022-12-03T06:09:38.639Z,101570.78
2022-12-03T06:12:07.006Z,101567.44
2022-12-03T06:14:35.671Z,101558.03
2022-12-03T06:17:04.750Z,101566.78
2022-12-03T06:19:32.764Z,101556.31
2022-12-03T06:22:00.614Z,101563.81
2022-12-03T06:24:28.452Z,101553.84
2022-12-03T06:26:56.281Z,101561.22
2022-12-03T06:29:23.850Z,101559.41
2022-12-03T06:31:51.688Z,101569.03
2022-12-03T06:34:19.339Z,101561.41
2022-12-03T06:36:47.168Z,101555.34
2022-12-03T06:39:14.788Z,101569.91
2022-12-03T06:41:42.705Z,101556.78
2022-12-03T06:44:10.287Z,101558.72
2022-12-03T06:46:38.196Z,101559.03
2022-12-03T06:49:06.073Z,101558.84
2022-12-03T06:51:33.901Z,101557.00
2022-12-03T06:54:01.857Z,101562.53
2022-12-03T06:56:35.028Z,101569.13
2022-12-03T06:59:04.514Z,101572.69
2022-12-03T07:01:32.513Z,101575.84
2022-12-03T07:04:00.159Z,101580.75
2022-12-03T07:06:28.041Z,101581.56
2022-12-03T07:08:55.607Z,101584.38
2022-12-03T07:11:41.255Z,101590.34
2022-12-03T07:14:11.386Z,101584.06
2022-12-03T07:16:40.011Z,101580.66
2022-12-03T07:19:07.881Z,101589.84
2022-12-03T07:21:35.926Z,101590.53
2022-12-03T07:24:03.773Z,101602.63
2022-12-03T07:26:31.730Z,101593.22
2022-12-03T07:28:59.523Z,101588.44
2022-12-03T07:31:27.725Z,101584.06
2022-12-03T07:33:55.800Z,101588.16
2022-12-03T07:36:24.023Z,101585.13
2022-12-03T07:38:52.055Z,101577.94
2022-12-03T07:41:20.072Z,101573.84
2022-12-03T07:43:47.686Z,101574.53
2022-12-03T07:46:15.792Z,101576.03
2022-12-03T07:48:43.464Z,101571.84
2022-12-03T07:51:15.218Z,101573.06
2022-12-03T07:53:43.619Z,101570.38
2022-12-03T07:56:11.734Z,101572.38
2022-12-03T07:58:39.355Z,101569.38
2022-12-03T08:01:07.347Z,101572.31
2022-12-03T08:03:35.072Z,101571.09
2022-12-03T08:06:03.168Z,101571.13
2022-12-03T08:08:30.854Z,101572.63
2022-12-03T08:10:58.820Z,101574.38
2022-12-03T08:13:27.184Z,101572.72
2022-12-03T08:16:01.428Z,101571.13
2022-12-03T08:18:29.858Z,101558.91
2022-12-03T08:20:58.198Z,101558.94
2022-12-03T08:23:26.724Z,101555.34
2022-12-03T08:25:54.683Z,101560.66
2022-12-03T08:28:28.166Z,101559.91
2022-12-03T08:31:19.644Z,101568.97
2022-12-03T08:33:53.164Z,101570.44
2022-12-03T08:36:31.261Z,101579.38
2022-12-03T08:39:14.619Z,101558.75
2022-12-03T08:42:01.663Z,101568.50
2022-12-03T08:44:34.948Z,101565.50
2022-12-03T08:47:20.852Z,101570.00
2022-12-03T08:50:02.946Z,101565.09
2022-12-03T08:52:35.001Z,101566.44
2022-12-03T08:55:36.901Z,101567.94
2022-12-03T08:58:19.757Z,101561.72
2022-12-03T09:00:48.639Z,101563.50
2022-12-03T09:03:19.249Z,101565.53
2022-12-03T09:05:46.895Z,101561.13
2022-12-03T09:08:15.293Z,101558.44
2022-12-03T09:10:43.037Z,101555.53
2022-12-03T09:13:10.898Z,101549.81
2022-12-03T09:15:38.581Z,101552.81
2022-12-03T09:18:06.568Z,101548.56
2022-12-03T09:20:34.204Z,101546.34
2022-12-03T09:23:02.118Z,101549.66
2022-12-03T09:25:29.725Z,101547.84
2022-12-03T09:27:57.635Z,101548.72
2022-12-03T09:30:25.489Z,101547.13
2022-12-03T09:32:53.336Z,101545.56
2022-12-03T09:35:21.032Z,101545.72
2022-12-03T09:37:48.863Z,101535.97
2022-12-03T09:40:16.618Z,101535.63
2022-12-03T09:42:45.061Z,101534.97
2022-12-03T09:45:14.443Z,101537.41
2022-12-03T09:47:46.194Z,101531.13
2022-12-03T09:50:20.148Z,101531.13
2022-12-03T09:52:51.124Z,101531.19
2022-12-03T09:55:24.808Z,101526.84
2022-12-03T09:57:54.400Z,101519.13
2022-12-03T10:00:30.217Z,101524.66
2022-12-03T10:03:02.353Z,101526.25
2022-12-03T10:05:30.425Z,101530.16
2022-12-03T10:08:08.464Z,101536.59
2022-12-03T10:10:37.135Z,101527.00
2022-12-03T10:13:06.011Z,101536.41
2022-12-03T10:15:33.981Z,101532.19
2022-12-03T10:18:15.881Z,101524.50
2022-12-03T10:20:43.643Z,101510.69
2022-12-03T10:23:26.009Z,101526.69
2022-12-03T10:25:56.971Z,101517.03
2022-12-03T10:28:37.351Z,101511.00
2022-12-03T10:31:08.524Z,101514.00
2022-12-03T10:33:45.603Z,101505.84
2022-12-03T10:36:20.649Z,101504.69
2022-12-03T10:39:06.878Z,101513.22
2022-12-03T10:41:35.073Z,101514.13
2022-12-03T10:44:18.852Z,101508.03
2022-12-03T10:47:04.376Z,101503.56
2022-12-03T10:49:32.525Z,101505.91
2022-12-03T10:52:00.359Z,101505.84
2022-12-03T10:54:30.738Z,101504.06
2022-12-03T10:56:58.465Z,101503.06
2022-12-03T10:59:30.808Z,101510.66
2022-12-03T11:01:58.983Z,101513.16
2022-12-03T11:04:34.792Z,101503.75
2022-12-03T11:07:06.598Z,101504.75
2022-12-03T11:09:34.482Z,101498.22
2022-12-03T11:12:17.647Z,101498.34
2022-12-03T11:14:53.096Z,101497.44
2022-12-03T11:17:39.497Z,101483.72
2022-12-03T11:20:30.569Z,101487.91
2022-12-03T11:22:59.239Z,101493.06
2022-12-03T11:25:27.349Z,101492.16
2022-12-03T11:28:15.680Z,101500.44
2022-12-03T11:30:50.059Z,101496.38
2022-12-03T11:33:24.933Z,101493.50
2022-12-03T11:36:05.160Z,101492.66
2022-12-03T11:38:40.914Z,101492.16
2022-12-03T11:41:10.538Z,101491.16
2022-12-03T11:43:53.325Z,101491.03
2022-12-03T11:46:24.746Z,101495.34
2022-12-03T11:48:54.701Z,101490.72
2022-12-03T11:51:24.359Z,101490.84
2022-12-03T11:53:55.382Z,101497.72
2022-12-03T11:56:30.932Z,101492.66
2022-12-03T11:59:04.281Z,101485.94
2022-12-03T12:01:39.095Z,101487.78
2022-12-03T12:04:25.947Z,101468.59
2022-12-03T12:06:53.929Z,101483.41
2022-12-03T12:09:54.198Z,101484.09
2022-12-03T12:12:30.277Z,101474.94
2022-12-03T12:14:59.025Z,101485.97
2022-12-03T12:17:37.489Z,101486.06
2022-12-03T12:20:26.716Z,101483.53
2022-12-03T12:22:55.958Z,101481.00
2022-12-03T12:25:40.962Z,101470.81
2022-12-03T12:28:09.268Z,101474.38
2022-12-03T12:30:38.914Z,101454.53
2022-12-03T12:33:26.164Z,101466.16
2022-12-03T12:35:54.756Z,101465.88
2022-12-03T12:38:24.481Z,101466.91
2022-12-03T12:40:52.805Z,101460.69
2022-12-03T12:43:26.868Z,101467.63
2022-12-03T12:45:55.745Z,101458.91
2022-12-03T12:48:34.050Z,101456.31
2022-12-03T12:51:11.615Z,101456.19
2022-12-03T12:53:42.915Z,101457.00
2022-12-03T12:56:31.559Z,101454.72
2022-12-03T12:59:10.146Z,101453.78
2022-12-03T13:01:38.004Z,101452.25
2022-12-03T13:04:13.331Z,101455.56
2022-12-03T13:06:41.953Z,101450.41
2022-12-03T13:09:27.719Z,101448.34
2022-12-03T13:11:59.281Z,101455.44
2022-12-03T13:14:31.979Z,101448.56
2022-12-03T13:17:01.693Z,101453.63
2022-12-03T13:19:39.571Z,101454.63
2022-12-03T13:22:21.404Z,101458.09
2022-12-03T13:24:54.919Z,101464.22
2022-12-03T13:27:31.846Z,101471.78
2022-12-03T13:30:07.282Z,101470.88
2022-12-03T13:32:37.711Z,101474.34
2022-12-03T13:35:30.570Z,101468.41
2022-12-03T13:38:01.581Z,101474.19
2022-12-03T13:40:36.243Z,101476.44
2022-12-03T13:43:16.653Z,101477.56
2022-12-03T13:45:47.272Z,101484.53
2022-12-03T13:48:35.118Z,101477.19
2022-12-03T13:51:19.675Z,101472.78
2022-12-03T13:53:47.358Z,101473.69
2022-12-03T13:56:21.418Z,101467.13
2022-12-03T13:58:49.133Z,101473.75
2022-12-03T14:01:17.366Z,101474.81
2022-12-03T14:03:45.304Z,101474.69
2022-12-03T14:06:13.247Z,101481.44
2022-12-03T14:08:41.087Z,101468.63
2022-12-03T14:11:09.144Z,101474.44
2022-12-03T14:13:36.870Z,101480.47
2022-12-03T14:16:05.147Z,101479.53
2022-12-03T14:18:32.783Z,101476.88
2022-12-03T14:21:00.634Z,101488.25
2022-12-03T14:23:28.242Z,101490.66
2022-12-03T14:25:56.378Z,101493.34
2022-12-03T14:28:24.155Z,101486.94
2022-12-03T14:30:53.736Z,101481.72
2022-12-03T14:33:21.363Z,101469.84
2022-12-03T14:35:49.362Z,101465.53
2022-12-03T14:38:16.998Z,101465.44
2022-12-03T14:40:45.191Z,101457.66
2022-12-03T14:43:12.897Z,101473.44
2022-12-03T14:45:41.048Z,101476.09
2022-12-03T14:48:08.782Z,101476.16
2022-12-03T14:50:36.784Z,101479.72
2022-12-03T14:53:04.465Z,101478.59
2022-12-03T14:55:32.476Z,101478.47
2022-12-03T14:58:00.090Z,101475.91
2022-12-03T15:00:28.087Z,101469.78
2022-12-03T15:02:55.880Z,101469.19
2022-12-03T15:05:28.566Z,101469.72
2022-12-03T15:07:57.181Z,101474.06
2022-12-03T15:10:25.149Z,101479.44
2022-12-03T15:12:52.807Z,101483.78
2022-12-03T15:15:21.263Z,101487.41
2022-12-03T15:17:49.348Z,101499.19
2022-12-03T15:20:19.620Z,101499.19
2022-12-03T15:22:47.214Z,101496.78
2022-12-03T15:25:15.251Z,101497.56
2022-12-03T15:27:42.856Z,101506.38
2022-12-03T15:30:10.780Z,101500.88
2022-12-03T15:32:40.521Z,101505.97
2022-12-03T15:35:08.822Z,101505.28
2022-12-03T15:37:36.462Z,101511.34
2022-12-03T15:40:04.830Z,101509.41
2022-12-03T15:42:32.493Z,101509.09
2022-12-03T15:45:00.656Z,101506.13
2022-12-03T15:47:28.398Z,101504.75
2022-12-03T15:49:56.531Z,101501.25
2022-12-03T15:52:24.398Z,101510.81
2022-12-03T15:54:52.580Z,101517.53
2022-12-03T15:57:20.229Z,101511.38
2022-12-03T15:59:48.203Z,101515.75
2022-12-03T16:02:15.846Z,101521.78
2022-12-03T16:04:44.555Z,101514.69
2022-12-03T16:07:12.271Z,101516.50
2022-12-03T16:09:40.131Z,101512.75
2022-12-03T16:12:07.748Z,101520.69
2022-12-03T16:14:35.696Z,101525.03
2022-12-03T16:17:03.340Z,101514.56
2022-12-03T16:19:31.322Z,101516.50
2022-12-03T16:22:00.830Z,101529.13
2022-12-03T16:24:28.728Z,101526.69
2022-12-03T16:26:56.277Z,101528.56
2022-12-03T16:29:24.239Z,101522.53
2022-12-03T16:31:51.846Z,101532.75
2022-12-03T16:34:19.751Z,101526.56
2022-12-03T16:36:48.093Z,101531.63
2022-12-03T16:39:16.555Z,101529.88
2022-12-03T16:41:44.990Z,101532.69
2022-12-03T16:44:20.430Z,101537.88
2022-12-03T16:46:48.029Z,101528.25
2022-12-03T16:49:15.908Z,101531.69
2022-12-03T16:51:43.504Z,101524.41
2022-12-03T16:54:11.760Z,101524.84
2022-12-03T16:56:39.384Z,101532.00
2022-12-03T16:59:07.260Z,101534.34
2022-12-03T17:01:34.936Z,101538.03
2022-12-03T17:04:02.958Z,101533.47
2022-12-03T17:06:30.581Z,101541.25
2022-12-03T17:08:58.461Z,101540.50
2022-12-03T17:11:26.177Z,101543.63
2022-12-03T17:13:54.499Z,101532.53
2022-12-03T17:16:22.227Z,101539.03
2022-12-03T17:18:50.129Z,101532.00
2022-12-03T17:21:17.672Z,101530.44
2022-12-03T17:23:48.772Z,101526.69
2022-12-03T17:26:17.042Z,101522.38
2022-12-03T17:28:45.621Z,101522.97
2022-12-03T17:31:13.957Z,101517.00
2022-12-03T17:33:41.905Z,101521.09
2022-12-03T17:36:10.267Z,101516.00
2022-12-03T17:38:39.506Z,101523.53
2022-12-03T17:41:07.657Z,101520.91
2022-12-03T17:43:35.508Z,101524.13
2022-12-03T17:46:05.114Z,101525.09
2022-12-03T17:48:35.847Z,101533.97
2022-12-03T17:51:03.496Z,101525.16
2022-12-03T17:53:31.391Z,101525.16
2022-12-03T17:55:59.022Z,101526.94
2022-12-03T17:58:27.713Z,101529.28
2022-12-03T18:01:00.434Z,101528.06
2022-12-03T18:03:31.013Z,101530.66
2022-12-03T18:05:58.684Z,101533.66
2022-12-03T18:08:26.654Z,101537.94
2022-12-03T18:10:54.492Z,101531.22
2022-12-03T18:13:22.385Z,101533.72
2022-12-03T18:15:50.027Z,101534.63
2022-12-03T18:18:17.939Z,101526.94
2022-12-03T18:20:45.584Z,101528.78
2022-12-03T18:23:13.648Z,101526.31
2022-12-03T18:25:42.186Z,101529.47
2022-12-03T18:28:10.123Z,101527.16
2022-12-03T18:30:37.771Z,101530.47
2022-12-03T18:33:05.672Z,101522.69
2022-12-03T18:35:33.403Z,101526.06
2022-12-03T18:38:01.640Z,101533.84
2022-12-03T18:40:29.400Z,101535.78
2022-12-03T18:42:57.367Z,101533.84
2022-12-03T18:45:25.131Z,101538.16
2022-12-03T18:47:53.095Z,101535.47
2022-12-03T18:50:20.767Z,101540.09
2022-12-03T18:52:48.585Z,101532.28
2022-12-03T18:55:19.939Z,101528.16
2022-12-03T18:57:48.027Z,101531.31
2022-12-03T19:00:16.104Z,101535.63
2022-12-03T19:05:34.191Z,101524.44
2022-12-03T19:08:03.499Z,101530.47
2022-12-03T19:10:31.335Z,101535.28
2022-12-03T19:12:59.289Z,101532.34
2022-12-03T19:15:26.994Z,101526.47
2022-12-03T19:17:54.818Z,101534.19
2022-12-03T19:20:22.396Z,101546.31
2022-12-03T19:22:50.382Z,101535.03
2022-12-03T19:25:18.145Z,101536.75
2022-12-03T19:27:46.224Z,101546.19
2022-12-03T19:30:14.041Z,101547.69
2022-12-03T19:32:41.879Z,101538.84
2022-12-03T19:35:11.343Z,101539.91
2022-12-03T19:37:39.455Z,101535.75
2022-12-03T19:40:10.228Z,101530.25
2022-12-03T19:42:38.665Z,101539.09
2022-12-03T19:45:07.010Z,101530.53
2022-12-03T19:47:36.161Z,101527.88
2022-12-03T19:50:05.157Z,101522.19
2022-12-03T19:52:36.479Z,101525.53
2022-12-03T19:55:05.116Z,101523.66
2022-12-03T19:57:33.190Z,101519.44
2022-12-03T20:00:01.192Z,101511.50
2022-12-03T20:02:29.361Z,101511.53
2022-12-03T20:04:57.250Z,101513.41
2022-12-03T20:07:25.134Z,101501.97
2022-12-03T20:09:53.097Z,101519.72
2022-12-03T20:12:21.463Z,101533.31
2022-12-03T20:14:50.092Z,101533.38
2022-12-03T20:17:18.032Z,101533.41
2022-12-03T20:19:45.690Z,101536.03
2022-12-03T20:22:13.638Z,101535.75
2022-12-03T20:24:41.267Z,101534.06
2022-12-03T20:27:09.258Z,101533.94
2022-12-03T20:29:36.924Z,101536.69
2022-12-03T20:32:06.960Z,101522.22
2022-12-03T20:34:35.989Z,101522.81
2022-12-03T20:37:04.010Z,101520.19
2022-12-03T20:39:31.831Z,101521.97
2022-12-03T20:41:59.792Z,101521.16
2022-12-03T20:44:27.470Z,101528.84
2022-12-03T20:46:55.804Z,101536.66
2022-12-03T20:49:23.488Z,101520.97
2022-12-03T20:51:51.449Z,101527.09
2022-12-03T20:54:19.164Z,101534.53
2022-12-03T20:56:47.155Z,101531.28
2022-12-03T20:59:16.773Z,101524.41
2022-12-03T21:01:45.467Z,101531.09
2022-12-03T21:04:13.648Z,101528.44
2022-12-03T21:06:42.407Z,101531.94
2022-12-03T21:09:11.559Z,101525.97
2022-12-03T21:11:42.283Z,101528.31
2022-12-03T21:14:11.316Z,101526.75
2022-12-03T21:17:06.626Z,101537.94
2022-12-03T21:19:27.774Z,101542.84
2022-12-03T21:21:55.848Z,101547.03
2022-12-03T21:24:23.711Z,101537.84
2022-12-03T21:26:51.582Z,101547.41
2022-12-03T21:29:19.260Z,101543.81
2022-12-03T21:31:47.248Z,101522.97
2022-12-03T21:34:15.126Z,101533.50
2022-12-03T21:36:43.155Z,101536.88
2022-12-03T21:39:11.012Z,101540.41
2022-12-03T21:41:39.518Z,101525.88
2022-12-03T21:44:07.170Z,101534.47
2022-12-03T21:47:10.311Z,101533.78
2022-12-03T21:49:23.370Z,101530.88
2022-12-03T21:51:51.365Z,101528.19
2022-12-03T21:54:19.158Z,101513.28
2022-12-03T21:56:47.103Z,101530.00
2022-12-03T21:59:15.206Z,101528.97
2022-12-03T22:01:47.127Z,101533.28
2022-12-03T22:04:15.138Z,101550.53
2022-12-03T22:06:43.192Z,101547.34
2022-12-03T22:09:10.819Z,101542.06
2022-12-03T22:11:38.859Z,101540.25
2022-12-03T22:14:08.208Z,101548.66
2022-12-03T22:16:36.256Z,101550.53
2022-12-03T22:19:04.090Z,101553.50
2022-12-03T22:21:31.951Z,101533.47
2022-12-03T22:23:59.814Z,101549.16
2022-12-03T22:26:27.713Z,101540.38
2022-12-03T22:28:55.325Z,101547.47
2022-12-03T22:31:23.318Z,101550.13
2022-12-03T22:33:51.009Z,101546.63
2022-12-03T22:36:21.455Z,101543.75
2022-12-03T22:38:50.519Z,101544.75
2022-12-03T22:41:20.010Z,101542.03
2022-12-03T22:43:48.583Z,101547.03
2022-12-03T22:46:17.376Z,101541.94
2022-12-03T22:48:46.616Z,101542.06
2022-12-03T22:51:20.910Z,101539.53
2022-12-03T22:53:53.643Z,101543.81
2022-12-03T22:56:22.553Z,101540.13
2022-12-03T22:58:50.581Z,101540.25
2022-12-03T23:01:29.676Z,101510.94
2022-12-03T23:03:58.164Z,101528.25
2022-12-03T23:06:26.985Z,101536.09
2022-12-03T23:08:55.278Z,101534.19
2022-12-03T23:11:23.493Z,101528.78
2022-12-03T23:13:51.251Z,101533.03
2022-12-03T23:16:26.141Z,101530.47
2022-12-03T23:18:54.246Z,101532.41
2022-12-03T23:21:29.525Z,101530.63
2022-12-03T23:23:59.840Z,101525.59
2022-12-03T23:26:28.844Z,101521.09
2022-12-03T23:28:56.982Z,101526.25
2022-12-03T23:31:31.335Z,101526.59
2022-12-03T23:34:00.120Z,101521.16
2022-12-03T23:36:30.499Z,101534.28
2022-12-03T23:38:58.224Z,101536.78
2022-12-03T23:41:26.370Z,101536.69
2022-12-03T23:43:54.072Z,101536.84
2022-12-03T23:46:27.948Z,101533.22
2022-12-03T23:48:58.486Z,101543.63
2022-12-03T23:51:26.873Z,101542.06
2022-12-03T23:53:55.575Z,101543.78
2022-12-03T23:56:29.940Z,101534.25
2022-12-03T23:58:58.746Z,101543.63
